Airfield :
LOGIN :

Register | Disclaimer

   EN    FR    IT 

 










Legend :    VFR   Marginal VFR   IFR   Intensive IFR   Very Intensive IFR
Visi :
Ceiling :
>= 8 km
>= 3000ft
5 to 8 km
1000 to 3000 ft
1500m to 5 km
500 to 1000 ft
800 to 1500m
200 to 500 ft
< 800m
< 200 ft
Symbols :   Thunderstorms  Fog  Heavy snow  Heavy precipitations  Wind > 20 kt
SIGMETs :     Misc.  Thunderstorms  Icing  Turbulence  Mountain Waves  Volcanic Ashes






- Airport Elevation : 277 ft
- IATA code : JER


EGJJ - Jersey

CURRENT METAR :
  • 090720Z 06011KT 020V090 9999 FEW008 18/16 Q1027

EXPIRED METARs :
  • 090650Z 07010KT 020V100 9999 FEW008 18/16 Q1027
  • 090620Z 06009KT 020V090 9999 FEW008 18/16 Q1027
  • 090550Z 07010KT 9999 FEW004 17/16 Q1026
  • 090450Z 05008KT 360V090 9999 FEW004 17/16 Q1026

TAF TAF EGJJ
Valid from the 09 at 06:00 until the 09 at 15:00 UTC


090458Z 0906/0915 05010KT 9999 FEW004
PROB40
TEMPO 0912/0915 05015G25KT
ATIS : +44 1534 498 073



MET'MAP, your aeronautical weather chart ! - Copyright ORBIFLY December 2007 - Disclaimer

ORBIFLY MET'MAP TEAM :

Programming & Development : Alexandra Zaïnal
Original concept : Baudouin d'Aumeries
Technical & hardware support : Manuel Goepfert
Assistance : Marc-Olivier Méhu




SOURCES & CREDITS :

   NOAA